Tiempo atmosférico en la estación meteorológica de Castell, Platja d'Aro, Girona (14 m.)



Fecha
DESCASC
Temp. máxima en grados centígrados (hora)
DESCASC
Temp. mínima en grados centígrados (hora)
DESCASC
Temp. media en grados centígrados
DESCASC
Racha de viento máxima en m/sg (hora)
DESCASC
Velocidad máxima media en intervalos de 10 minutos(hora)
DESCASC
Precipitaciones diarias en mm
DESCASC
Precipitaciones de 00:00 a 06:00 en mm
DESCASC
Precipitaciones de 06:00 a 12:00 en mm
DESCASC
Precipitaciones de 12:00 a 18:00 en mm
DESCASC
Precipitaciones de 18:00 a 24:00 en mm
DESCASC
13-10-2019 -- (--) -- (--) -- 7.22 (14:20) 3.89 (14:40) -- -- -- -- --
12-10-2019 -- (--) -- (--) -- 8.33 (14:40) 4.44 (15:10) -- -- -- -- --
11-10-2019 -- (--) -- (--) -- 10.28 (16:00) 5 (14:30) -- -- -- -- --
10-10-2019 -- (--) -- (--) -- 5.83 (11:50) 2.78 (11:50) -- -- -- -- --
09-10-2019 -- (--) -- (--) -- 6.11 (15:40) 3.33 (14:20) -- -- -- -- --
08-10-2019 -- (--) -- (--) -- 11.39 (16:50) 5.56 (16:20) -- -- -- -- --
07-10-2019 -- (--) -- (--) -- 13.33 (07:30) 6.11 (07:30) -- -- -- -- --
06-10-2019 -- (--) -- (--) -- 5.83 (14:10) 3.06 (14:20) -- -- -- -- --
05-10-2019 -- (--) -- (--) -- 5.83 (14:30) 3.33 (13:50) -- -- -- -- --
04-10-2019 -- (--) -- (--) -- 5.28 (17:10) 2.78 (12:20) -- -- -- -- --
03-10-2019 -- (--) -- (--) -- 10.28 (06:50) 5.28 (07:50) -- -- -- -- --
02-10-2019 -- (--) -- (--) -- 13.06 (01:00) 5.83 (01:10) -- -- -- -- --
01-10-2019 -- (--) -- (--) -- 12.78 (23:50) 6.39 (23:50) -- -- -- -- --
30-09-2019 -- (--) -- (--) -- 9.44 (13:50) 6.39 (13:50) -- -- -- -- --
29-09-2019 -- (--) -- (--) -- 8.61 (14:10) 5 (13:40) -- -- -- -- --
28-09-2019 -- (--) -- (--) -- 6.11 (12:50) 3.33 (11:30) -- -- -- -- --
27-09-2019 -- (--) -- (--) -- 7.22 (13:30) 3.61 (13:20) -- -- -- -- --
26-09-2019 -- (--) -- (--) -- 5.83 (17:50) 2.78 (14:00) -- -- -- -- --
25-09-2019 -- (--) -- (--) -- 6.39 (12:20) 3.33 (14:20) -- -- -- -- --
24-09-2019 -- (--) -- (--) -- 6.67 (14:30) 3.89 (14:30) -- -- -- -- --
23-09-2019 -- (--) -- (--) -- 7.78 (04:20) 3.89 (04:20) -- -- -- -- --
22-09-2019 -- (--) -- (--) -- 8.61 (13:50) 5 (13:50) -- -- -- -- --
21-09-2019 -- (--) -- (--) -- 8.33 (11:40) 4.17 (12:00) -- -- -- -- --
20-09-2019 -- (--) -- (--) -- 8.06 (17:20) 4.72 (17:20) -- -- -- -- --
19-09-2019 -- (--) -- (--) -- 6.67 (16:10) 3.89 (14:10) -- -- -- -- --
18-09-2019 -- (--) -- (--) -- 7.5 (14:40) 3.89 (14:30) -- -- -- -- --
17-09-2019 -- (--) -- (--) -- 6.11 (14:20) 3.33 (14:20) -- -- -- -- --
16-09-2019 -- (--) -- (--) -- 5.83 (12:30) 3.06 (11:50) -- -- -- -- --
15-09-2019 -- (--) -- (--) -- 6.39 (13:00) 3.89 (17:50) -- -- -- -- --

Gráficas

Temp. máximas Temp. mínimas Temp. medias Precipitaciones Rachas de viento máximas Velocidades máximas media en intervalos de 10 minutos

Datos horarios

Fecha y hora oficial Temperatura (ºC) Velocidad del viento (km/h) Dirección del viento Racha (km/h) Dirección de racha Precipitación (mm) Presión (hPa) Tendencia (hPa) Humedad (%)
2019-10-14 23:00:00 18.6 4 Oeste 8 Oeste 0 -- -- 96
2019-10-14 22:00:00 19.8 0 Calma 6 Sur 0 -- -- 95
2019-10-14 21:00:00 21.4 3 Sudeste 16 Sur 1.6 -- -- 96
2019-10-14 20:00:00 21.8 7 Sur 15 Sudeste 0.2 -- -- 96
2019-10-14 19:00:00 22 4 Este 12 Este 0 -- -- 94
2019-10-14 18:00:00 22.5 3 Sudeste 11 Sur 0 -- -- 92
2019-10-14 17:00:00 23 5 Este 13 Sur 0 -- -- 90
2019-10-14 16:00:00 23.9 7 Sudeste 16 Sudeste 0 -- -- 87
2019-10-14 15:00:00 22.6 9 Este 19 Este 0 -- -- 91
2019-10-14 14:00:00 23.2 8 Este 15 Nordeste 0 -- -- 89
2019-10-14 13:00:00 22.5 9 Este 18 Este 0 -- -- 90
2019-10-14 12:00:00 22.2 6 Este 16 Nordeste 0 -- -- 91
2019-10-14 11:00:00 21.6 6 Este 17 Este 0 -- -- 93
2019-10-14 10:00:00 21.3 9 Este 18 Este 0 -- -- 94
2019-10-14 09:00:00 20.6 6 Este 14 Nordeste 0 -- -- 96
2019-10-14 08:00:00 20.5 5 Este 9 Este 0 -- -- 96
2019-10-14 07:00:00 20.4 3 Este 9 Este 0 -- -- 96
2019-10-14 06:00:00 20.5 5 Este 10 Este 0 -- -- 96
2019-10-14 05:00:00 20.4 5 Este 8 Este 0 -- -- 96
2019-10-14 04:00:00 20.4 4 Este 9 Este 0 -- -- 96
2019-10-14 03:00:00 20.4 4 Este 8 Este 0 -- -- 97
2019-10-14 02:00:00 20.2 4 Este 8 Este 0 -- -- 97
2019-10-14 01:00:00 19.5 3 Sudeste 6 Este 0 -- -- 96
2019-10-14 00:00:00 19.7 0 Calma 5 Este 0 -- -- 94
2019-10-13 23:00:00 20.5 3 Este 8 Este 0 -- -- 94
2019-10-13 22:00:00 20.6 4 Nordeste 8 Nordeste 0 -- -- 95
2019-10-13 21:00:00 20.5 3 Nordeste 8 Este 0 -- -- 94
2019-10-13 20:00:00 20.7 4 Nordeste 12 Sudeste 0 -- -- 92
2019-10-13 19:00:00 21.2 5 Sudeste 13 Sudeste 0 -- -- 90
2019-10-13 18:00:00 21.6 7 Sudeste 17 Sudeste 0 -- -- 87
2019-10-13 17:00:00 22 6 Sudeste 20 Sudeste 0 -- -- 87
2019-10-13 16:00:00 22.6 7 Sudeste 23 Sudeste 0 -- -- 85
2019-10-13 15:00:00 22.9 11 Sudeste 26 Sur 0 -- -- 83
2019-10-13 14:00:00 23.6 10 Sudeste 23 Sudeste 0 -- -- 83
2019-10-13 13:00:00 23.5 8 Sudeste 18 Este 0 -- -- 83
2019-10-13 12:00:00 23.6 8 Sudeste 19 Sudeste 0 -- -- 82
2019-10-13 11:00:00 21.8 5 Este 17 Este 0 -- -- 90
2019-10-13 10:00:00 20.9 3 Este 10 Este 0 -- -- 95
2019-10-13 09:00:00 20.3 3 Este 10 Sudeste 0 -- -- 97
2019-10-13 08:00:00 19.5 0 Calma 5 Norte 0 -- -- 95
2019-10-13 07:00:00 20.1 3 Este 9 Este 0 -- -- 95
2019-10-13 06:00:00 20.4 3 Este 9 Sudeste 0 -- -- 94
2019-10-13 05:00:00 20.3 2 Este 7 Este 0 -- -- 95
2019-10-13 04:00:00 20.4 2 Este 4 Este 0 -- -- 94
2019-10-13 03:00:00 20.5 0 Calma 4 Sur 0 -- -- 94
2019-10-13 02:00:00 20.4 0 Calma 4 Este 0 -- -- 93
2019-10-13 01:00:00 20.3 0 Calma 2 Sur 0 -- -- 93
2019-10-13 00:00:00 20.5 0 Calma 4 Este 0 -- -- 92
2019-10-12 23:00:00 20.7 2 Nordeste 7 Sudeste 0 -- -- 91
2019-10-12 22:00:00 20.7 5 Sudeste 14 Sudeste 0 -- -- 89
2019-10-12 21:00:00 20.7 4 Sudeste 10 Sudeste 0 -- -- 88
2019-10-12 20:00:00 20.8 0 Calma 8 Sudeste 0 -- -- 88
2019-10-12 19:00:00 21.4 2 Este 22 Sur 0 -- -- 85
2019-10-12 18:00:00 21.9 11 Sur 24 Sur 0 -- -- 83
2019-10-12 17:00:00 22.7 13 Sur 26 Sur 0 -- -- 78
2019-10-12 16:00:00 23.3 14 Sur 28 Sur 0 -- -- 75
2019-10-12 15:00:00 24 12 Sur 30 Sudeste 0 -- -- 74
2019-10-12 14:00:00 23.7 9 Sur 23 Sudoeste 0 -- -- 76
2019-10-12 13:00:00 22.6 9 Sur 21 Sur 0 -- -- 78
2019-10-12 12:00:00 22.1 8 Sur 20 Sudoeste 0 -- -- 85
2019-10-12 11:00:00 21.9 8 Sur 26 Sur 0 -- -- 86
2019-10-12 10:00:00 21.7 8 Sur 23 Sur 0 -- -- 88
2019-10-12 09:00:00 21.5 6 Sur 24 Sudoeste 0 -- -- 91
2019-10-12 08:00:00 21.3 9 Sudoeste 26 Sudoeste 0 -- -- 89
2019-10-12 07:00:00 21.3 8 Sudoeste 21 Sudoeste 0 -- -- 92
2019-10-12 06:00:00 21.2 7 Sudoeste 14 Sudoeste 0 -- -- 92
2019-10-12 05:00:00 21 6 Sudoeste 13 Sudoeste 0 -- -- 92
2019-10-12 04:00:00 20.6 4 Sudoeste 13 Sur 0 -- -- 91
2019-10-12 03:00:00 19.9 5 Sudoeste 11 Sudoeste 0 -- -- 93
2019-10-12 02:00:00 20.2 5 Sudoeste 13 Sudoeste 0 -- -- 91
2019-10-12 01:00:00 20.5 4 Oeste 18 Sudoeste 0 -- -- 88
2019-10-12 00:00:00 20.4 6 Sudoeste 17 Oeste 0 -- -- 93
2019-10-11 23:00:00 18.8 0 Calma 6 Sudeste 0 -- -- 90
2019-10-11 22:00:00 19.9 2 Sur 7 Sudoeste 0 -- -- 87
2019-10-11 21:00:00 21.7 3 Sudoeste 15 Sur 0 -- -- 83
2019-10-11 20:00:00 22.1 3 Este 15 Norte 0 -- -- 82
2019-10-11 19:00:00 22.3 4 Norte 28 Sudoeste 0 -- -- 81
2019-10-11 18:00:00 22.9 6 Sudoeste 26 Sudoeste 0 -- -- 79
2019-10-11 17:00:00 23.7 7 Sur 26 Sudoeste 0 -- -- 74
2019-10-11 16:00:00 23.7 14 Sur 37 Sur 0 -- -- 76
2019-10-11 15:00:00 23.7 14 Sur 34 Sur 0 -- -- 75
2019-10-11 14:00:00 23.4 17 Sur 30 Sur 0 -- -- 73
2019-10-11 13:00:00 23.8 14 Sur 26 Sur 0 -- -- 70
2019-10-11 12:00:00 23.5 9 Sur 17 Sudoeste 0 -- -- 73
2019-10-11 11:00:00 20.9 4 Este 10 Sudeste 0 -- -- 82
2019-10-11 10:00:00 17.5 2 Sudoeste 12 Oeste 0 -- -- 88
2019-10-11 09:00:00 15.5 3 Oeste 9 Oeste 0 -- -- 93
2019-10-11 08:00:00 15.3 3 Oeste 8 Oeste 0 -- -- 93
2019-10-11 07:00:00 15.5 3 Oeste 9 Oeste 0 -- -- 93
2019-10-11 06:00:00 15.3 4 Oeste 9 Oeste 0 -- -- 93
2019-10-11 05:00:00 15 5 Oeste 11 Sudoeste 0 -- -- 94
2019-10-11 04:00:00 14.2 3 Sudoeste 12 Oeste 0 -- -- 94
2019-10-11 03:00:00 14.3 3 Oeste 11 Oeste 0 -- -- 93
2019-10-11 02:00:00 14.4 3 Oeste 9 Oeste 0 -- -- 92
2019-10-11 01:00:00 15.1 4 Oeste 10 Oeste 0 -- -- 91
2019-10-11 00:00:00 16 4 Oeste 7 Oeste 0 -- -- 87
2019-10-10 23:00:00 17.6 3 Oeste 4 Noroeste 0 -- -- 84
2019-10-10 22:00:00 17.6 0 Calma 4 Oeste 0 -- -- 83
2019-10-10 21:00:00 17.9 2 Oeste 4 Oeste 0 -- -- 82
2019-10-10 20:00:00 18.1 0 Calma 4 Sur 0 -- -- 79
2019-10-10 19:00:00 18.8 0 Calma 13 Sudeste 0 -- -- 75
2019-10-10 18:00:00 19.7 8 Sudeste 16 Sudeste 0 -- -- 68
2019-10-10 17:00:00 20.6 8 Sur 19 Sudeste 0 -- -- 65
2019-10-10 16:00:00 21.1 8 Sudeste 17 Este 0 -- -- 61
2019-10-10 15:00:00 21 8 Sudeste 16 Sudeste 0 -- -- 59
2019-10-10 14:00:00 21.2 4 Sudeste 16 Noroeste 0 -- -- 58
2019-10-10 13:00:00 20.3 8 Norte 19 Norte 0 -- -- 58
2019-10-10 12:00:00 20 9 Norte 21 Noroeste 0 -- -- 57
2019-10-10 11:00:00 16.7 4 Oeste 8 Oeste 0 -- -- 89
2019-10-10 10:00:00 15.9 3 Oeste 8 Noroeste 0 -- -- 91
2019-10-10 09:00:00 15.5 5 Oeste 8 Noroeste 0 -- -- 89
2019-10-10 08:00:00 15.1 3 Sudoeste 7 Sudoeste 0 -- -- 90
2019-10-10 07:00:00 14.7 3 Oeste 9 Oeste 0 -- -- 92
2019-10-10 06:00:00 14.6 2 Oeste 8 Oeste 0 -- -- 93
2019-10-10 05:00:00 15.2 2 Oeste 6 Oeste 0 -- -- 92
2019-10-10 04:00:00 15.8 0 Calma 7 Oeste 0 -- -- 90
2019-10-10 03:00:00 16 2 Sudoeste 10 Oeste 0 -- -- 90
2019-10-10 02:00:00 16.2 4 Oeste 8 Oeste 0 -- -- 89
2019-10-10 01:00:00 16.4 0 Calma 6 Oeste 0 -- -- 90
2019-10-10 00:00:00 16.7 3 Sudoeste 6 Oeste 0 -- -- 90
2019-10-09 23:00:00 17.1 3 Sudoeste 13 Sudoeste 0 -- -- 88
2019-10-09 22:00:00 17 3 Oeste 9 Oeste 0 -- -- 85
2019-10-09 21:00:00 17.3 4 Oeste 6 Noroeste 0 -- -- 95
2019-10-09 20:00:00 17.4 0 Calma 7 Oeste 0 -- -- 94
2019-10-09 19:00:00 17.7 4 Oeste 9 Noroeste 0.2 -- -- 92
2019-10-09 18:00:00 17.9 4 Sudeste 10 Este 0.2 -- -- 88
2019-10-09 17:00:00 18.4 5 Sudeste 17 Este 0 -- -- 84
2019-10-09 16:00:00 18.6 8 Este 22 Este 0 -- -- 78
2019-10-09 15:00:00 18.3 10 Este 22 Este 0.2 -- -- 86
2019-10-09 14:00:00 19.6 10 Este 21 Este 0.2 -- -- 91
2019-10-09 13:00:00 20.8 6 Este 15 Este 0 -- -- 87
2019-10-09 12:00:00 21 6 Este 12 Este 0 -- -- 87
2019-10-09 11:00:00 21.1 6 Este 12 Este 0 -- -- 86
2019-10-09 10:00:00 18.2 2 Oeste 9 Oeste 0 -- -- 94
2019-10-09 09:00:00 15.5 3 Oeste 9 Oeste 0 -- -- 98
2019-10-09 08:00:00 14.3 3 Oeste 10 Oeste 0 -- -- 96
2019-10-09 07:00:00 14.6 6 Oeste 9 Oeste 0 -- -- 96
2019-10-09 06:00:00 14.9 5 Oeste 9 Oeste 0 -- -- 96
2019-10-09 05:00:00 15.2 4 Oeste 8 Oeste 0 -- -- 96
2019-10-09 04:00:00 15.5 4 Oeste 9 Oeste 0 -- -- 95
2019-10-09 03:00:00 15.9 4 Oeste 8 Oeste 0 -- -- 95
2019-10-09 02:00:00 16.5 5 Oeste 9 Oeste 0 -- -- 94
2019-10-09 01:00:00 16.7 3 Oeste 8 Oeste 0 -- -- 93
2019-10-09 00:00:00 17.3 4 Sudoeste 5 Oeste 0 -- -- 90
2019-10-08 23:00:00 18 3 Noroeste 6 Oeste 0 -- -- 89
2019-10-08 22:00:00 19 0 Calma 4 Sur 0 -- -- 86
2019-10-08 21:00:00 20.3 2 Sudoeste 8 Sudoeste 0 -- -- 82
2019-10-08 20:00:00 21.8 3 Sudoeste 18 Sudoeste 0 -- -- 77
2019-10-08 19:00:00 22.7 7 Sur 23 Sur 0 -- -- 75
2019-10-08 18:00:00 23.4 5 Sudoeste 23 Sudoeste 0 -- -- 72
2019-10-08 17:00:00 23.9 13 Sur 41 Sudoeste 0 -- -- 66
2019-10-08 16:00:00 24.8 14 Sur 39 Sur 0 -- -- 61
2019-10-08 15:00:00 24.9 15 Sudoeste 33 Sur 0 -- -- 60
2019-10-08 14:00:00 24.4 15 Sur 30 Sur 0 -- -- 64
2019-10-08 13:00:00 22.9 10 Sur 27 Sur 0 -- -- 70
2019-10-08 12:00:00 22.1 15 Sur 27 Sur 0 -- -- 70
2019-10-08 11:00:00 20 5 Noroeste 15 Oeste 0 -- -- 74
2019-10-08 10:00:00 16.3 4 Oeste 16 Oeste 0 -- -- 85
2019-10-08 09:00:00 13.1 5 Oeste 13 Oeste 0 -- -- 94
2019-10-08 08:00:00 12.3 5 Oeste 13 Sudoeste 0 -- -- 94
2019-10-08 07:00:00 12.7 5 Sudoeste 13 Oeste 0 -- -- 95
2019-10-08 06:00:00 12.8 3 Oeste 12 Sudoeste 0 -- -- 95
2019-10-08 05:00:00 13.1 4 Oeste 12 Oeste 0 -- -- 95
2019-10-08 04:00:00 13.5 5 Oeste 10 Oeste 0 -- -- 96
2019-10-08 03:00:00 13.3 4 Oeste 10 Oeste 0 -- -- 95
2019-10-08 02:00:00 13.4 3 Oeste 10 Oeste 0 -- -- 94
2019-10-08 01:00:00 14 5 Oeste 10 Oeste 0 -- -- 92
2019-10-08 00:00:00 14.7 4 Oeste 10 Oeste 0 -- -- 92
2019-10-07 23:00:00 15.5 4 Oeste 7 Oeste 0 -- -- 91
2019-10-07 22:00:00 16.9 2 Oeste 5 Sudoeste 0 -- -- 86
2019-10-07 21:00:00 18.2 3 Noroeste 6 Noroeste 0 -- -- 85
2019-10-07 20:00:00 19.4 3 Nordeste 16 Sur 0 -- -- 78
2019-10-07 19:00:00 21 6 Este 17 Sur 0 -- -- 69
2019-10-07 18:00:00 22.1 7 Sur 16 Sudeste 0 -- -- 62
2019-10-07 17:00:00 23.6 8 Sudeste 18 Sur 0 -- -- 47
2019-10-07 16:00:00 23.4 6 Sudeste 27 Sur 0 -- -- 50
2019-10-07 15:00:00 24.5 9 Nordeste 22 Norte 0 -- -- 28
2019-10-07 14:00:00 24.4 8 Nordeste 27 Nordeste 0 -- -- 32
2019-10-07 13:00:00 22.8 5 Norte 16 Norte 0 -- -- 37
2019-10-07 12:00:00 21.1 6 Norte 27 Noroeste 0 -- -- 43
2019-10-07 11:00:00 18.9 10 Noroeste 27 Oeste 0 -- -- 51
2019-10-07 10:00:00 18 17 Noroeste 41 Norte 0 -- -- 51
2019-10-07 09:00:00 17.5 17 Norte 39 Nordeste 0 -- -- 52
2019-10-07 08:00:00 16.9 18 Norte 48 Norte 0 -- -- 54
2019-10-07 07:00:00 17.2 17 Norte 40 Norte 0 -- -- 50
2019-10-07 06:00:00 17.4 18 Norte 37 Noroeste 0 -- -- 51
2019-10-07 05:00:00 17.2 15 Norte 41 Norte 0 -- -- 55
2019-10-07 04:00:00 17.9 14 Norte 30 Norte 0 -- -- 59
2019-10-07 03:00:00 18.3 12 Norte 23 Noroeste 0 -- -- 68
2019-10-07 02:00:00 17.4 3 Oeste 7 Sudoeste 0 -- -- 87
2019-10-07 01:00:00 18 0 Calma 4 Sur 0 -- -- 86
2019-10-07 00:00:00 18.3 2 Oeste 7 Oeste 0 -- -- 84
2019-10-06 23:00:00 18.5 3 Oeste 8 Oeste 0 -- -- 84
2019-10-06 22:00:00 18.7 3 Oeste 5 Oeste 0 -- -- 82
2019-10-06 21:00:00 19.1 0 Calma 4 Oeste 0 -- -- 80
2019-10-06 20:00:00 19.5 2 Este 5 Este 0 -- -- 79
2019-10-06 19:00:00 19.9 3 Este 6 Sudeste 0 -- -- 74
2019-10-06 18:00:00 20.3 4 Este 12 Sudeste 0 -- -- 70
2019-10-06 17:00:00 20.6 6 Sudeste 19 Sur 0 -- -- 71
2019-10-06 16:00:00 20.8 11 Sur 18 Sur 0 -- -- 68
2019-10-06 15:00:00 21.4 9 Sur 21 Sur 0 -- -- 64
2019-10-06 14:00:00 21.1 10 Sur 19 Sudeste 0 -- -- 64
2019-10-06 13:00:00 21.2 7 Sur 16 Sudeste 0 -- -- 59
2019-10-06 12:00:00 21.9 8 Sudeste 16 Sudeste 0 -- -- 57
2019-10-06 11:00:00 20.7 2 Sur 13 Oeste 0 -- -- 64
2019-10-06 10:00:00 18.2 4 Oeste 10 Oeste 0 -- -- 78
2019-10-06 09:00:00 16.8 5 Oeste 13 Sudoeste 0 -- -- 83
2019-10-06 08:00:00 16.3 6 Oeste 11 Sudoeste 0 -- -- 84
2019-10-06 07:00:00 16.1 3 Oeste 8 Oeste 0 -- -- 85
2019-10-06 06:00:00 15.8 4 Oeste 11 Oeste 0 -- -- 86
2019-10-06 05:00:00 15.1 4 Oeste 8 Oeste 0 -- -- 89
2019-10-06 04:00:00 14.6 3 Oeste 9 Oeste 0 -- -- 91
2019-10-06 03:00:00 14.2 4 Oeste 13 Noroeste 0 -- -- 92
2019-10-06 02:00:00 14.4 5 Oeste 10 Oeste 0 -- -- 93
2019-10-06 01:00:00 14.9 3 Oeste 9 Oeste 0 -- -- 92
2019-10-06 00:00:00 15.4 4 Oeste 10 Oeste 0 -- -- 90
2019-10-05 23:00:00 16 4 Sudoeste 9 Sudoeste 0 -- -- 87
2019-10-05 22:00:00 16.9 2 Sudoeste 7 Sudoeste 0 -- -- 84
2019-10-05 21:00:00 18.3 2 Sudoeste 5 Oeste 0 -- -- 78
2019-10-05 20:00:00 19.6 3 Oeste 5 Oeste 0 -- -- 76
2019-10-05 19:00:00 20.6 2 Sudeste 9 Este 0 -- -- 71
2019-10-05 18:00:00 21 6 Este 14 Este 0 -- -- 67
2019-10-05 17:00:00 21.4 7 Este 15 Este 0 -- -- 65
2019-10-05 16:00:00 21 11 Este 21 Este 0 -- -- 67
2019-10-05 15:00:00 21.3 9 Este 21 Este 0 -- -- 67
2019-10-05 14:00:00 21.6 10 Este 21 Sudeste 0 -- -- 67
2019-10-05 13:00:00 22.1 8 Este 15 Este 0 -- -- 65
2019-10-05 12:00:00 20.4 5 Sur 17 Noroeste 0 -- -- 65
2019-10-05 11:00:00 19.5 4 Norte 12 Noroeste 0 -- -- 68
2019-10-05 10:00:00 18.2 4 Oeste 8 Noroeste 0 -- -- 85
2019-10-05 09:00:00 17.1 2 Sur 9 Oeste 0 -- -- 91
2019-10-05 08:00:00 16.2 4 Oeste 9 Sudoeste 0 -- -- 94
2019-10-05 07:00:00 15.9 4 Oeste 11 Oeste 0 -- -- 95
2019-10-05 06:00:00 15.3 3 Oeste 8 Oeste 0 -- -- 95
2019-10-05 05:00:00 14.9 4 Oeste 10 Oeste 0 -- -- 95
2019-10-05 04:00:00 15.2 4 Oeste 11 Oeste 0 -- -- 93
2019-10-05 03:00:00 15.9 6 Oeste 9 Noroeste 0 -- -- 93
2019-10-05 02:00:00 16.2 4 Oeste 9 Oeste 0 -- -- 91
2019-10-05 01:00:00 16.5 4 Noroeste 9 Oeste 0 -- -- 91
2019-10-05 00:00:00 15.6 5 Oeste 9 Sudoeste 0 -- -- 91
2019-10-04 23:00:00 16.3 3 Oeste 8 Oeste 0 -- -- 88
2019-10-04 22:00:00 17.1 3 Oeste 8 Oeste 0 -- -- 86
2019-10-04 21:00:00 18.6 4 Oeste 8 Oeste 0 -- -- 84
2019-10-04 20:00:00 19.8 2 Sudoeste 7 Este 0 -- -- 80
2019-10-04 19:00:00 21.7 4 Este 10 Sudoeste 0 -- -- 72
2019-10-04 18:00:00 22.6 8 Sur 19 Sur 0 -- -- 62
2019-10-04 17:00:00 23.4 8 Sudeste 17 Sudeste 0 -- -- 72
2019-10-04 16:00:00 23.6 7 Sur 14 Sudeste 0 -- -- 70
2019-10-04 15:00:00 22.6 8 Sudeste 15 Sur 0 -- -- 72
2019-10-04 14:00:00 22.9 6 Sur 15 Sudeste 0 -- -- 70
2019-10-04 13:00:00 21.9 8 Este 18 Sudeste 0 -- -- 72
2019-10-04 12:00:00 21.8 8 Sudeste 15 Este 0 -- -- 72
2019-10-04 11:00:00 19.9 3 Noroeste 17 Sudoeste 0 -- -- 78
2019-10-04 10:00:00 16.9 7 Oeste 17 Oeste 0 -- -- 85
2019-10-04 09:00:00 14.4 4 Oeste 11 Sudoeste 0 -- -- 94
2019-10-04 08:00:00 13.8 4 Oeste 10 Sudoeste 0 -- -- 94
2019-10-04 07:00:00 13.9 4 Oeste 10 Sudoeste 0 -- -- 95
2019-10-04 06:00:00 14 4 Noroeste 9 Oeste 0 -- -- 95
2019-10-04 05:00:00 13.9 5 Oeste 11 Oeste 0 -- -- 95
2019-10-04 04:00:00 14.1 4 Oeste 12 Oeste 0 -- -- 95
2019-10-04 03:00:00 13.8 5 Oeste 10 Oeste 0 -- -- 96
2019-10-04 02:00:00 13.9 4 Oeste 11 Oeste 0 -- -- 95
2019-10-04 01:00:00 14.2 5 Oeste 10 Oeste 0 -- -- 94
2019-10-04 00:00:00 14.1 4 Oeste 12 Oeste 0 -- -- 92
2019-10-03 23:00:00 14.8 5 Oeste 9 Oeste 0 -- -- 92
2019-10-03 22:00:00 15.3 4 Oeste 8 Oeste 0 -- -- 90
2019-10-03 21:00:00 16.4 0 Calma 5 Sudoeste 0 -- -- 86
2019-10-03 20:00:00 17.8 0 Calma 6 Nordeste 0 -- -- 83
2019-10-03 19:00:00 19.7 4 Este 13 Este 0 -- -- 76
2019-10-03 18:00:00 20.5 6 Sudeste 19 Sudeste 0 -- -- 74
2019-10-03 17:00:00 22.5 9 Sur 23 Sudeste 0 -- -- 65
2019-10-03 16:00:00 23.3 12 Sur 24 Sur 0 -- -- 56
2019-10-03 15:00:00 23.3 13 Sur 23 Sur 0 -- -- 56
2019-10-03 14:00:00 22.7 12 Sur 23 Sur 0 -- -- 58
2019-10-03 13:00:00 22.8 5 Oeste 16 Noroeste 0 -- -- 53
2019-10-03 12:00:00 21.1 4 Oeste 14 Oeste 0 -- -- 57
2019-10-03 11:00:00 19.5 5 Noroeste 13 Oeste 0 -- -- 60
2019-10-03 10:00:00 18 5 Oeste 18 Oeste 0 -- -- 65
2019-10-03 09:00:00 17.5 7 Noroeste 27 Norte 0 -- -- 65
2019-10-03 08:00:00 17.3 16 Noroeste 34 Noroeste 0 -- -- 63
2019-10-03 07:00:00 17.7 14 Norte 37 Norte 0 -- -- 61
2019-10-03 06:00:00 17.9 14 Norte 30 Nordeste 0 -- -- 61
2019-10-03 05:00:00 18.4 14 Norte 31 Norte 0 -- -- 60
2019-10-03 04:00:00 18.5 14 Norte 35 Noroeste 0 -- -- 62
2019-10-03 03:00:00 18.7 18 Norte 36 Norte 0 -- -- 62
2019-10-03 02:00:00 18.8 14 Norte 33 Norte 0 -- -- 62
2019-10-03 01:00:00 19.4 11 Norte 30 Norte 0 -- -- 60
2019-10-03 00:00:00 16.7 4 Sudoeste 8 Oeste 0 -- -- 87
2019-10-02 23:00:00 16.5 5 Oeste 10 Oeste 0 -- -- 87
2019-10-02 22:00:00 17.1 5 Oeste 8 Oeste 0 -- -- 80
2019-10-02 21:00:00 18.6 4 Sudoeste 8 Sudeste 0 -- -- 85
2019-10-02 20:00:00 20.3 0 Calma 13 Sur 0 -- -- 79
2019-10-02 19:00:00 21.5 4 Sur 19 Sur 0 -- -- 74
2019-10-02 18:00:00 22.3 9 Sur 17 Sur 0 -- -- 69
2019-10-02 17:00:00 23.4 9 Sur 20 Sudeste 0 -- -- 66
2019-10-02 16:00:00 23.8 10 Sur 21 Sur 0 -- -- 63
2019-10-02 15:00:00 24.4 9 Sur 18 Sudeste 0 -- -- 61
2019-10-02 14:00:00 23.6 8 Este 20 Este 0 -- -- 58
2019-10-02 13:00:00 23 8 Este 20 Este 0 -- -- 58
2019-10-02 12:00:00 23.2 9 Sudeste 15 Sudeste 0 -- -- 61
2019-10-02 11:00:00 22.7 6 Este 13 Este 0 -- -- 60
2019-10-02 10:00:00 19.8 4 Oeste 12 Oeste 0 -- -- 68
2019-10-02 09:00:00 16.6 4 Oeste 10 Oeste 0 -- -- 85
2019-10-02 08:00:00 16.2 3 Oeste 10 Oeste 0 -- -- 86
2019-10-02 07:00:00 16.9 5 Oeste 14 Sudoeste 0 -- -- 83
2019-10-02 06:00:00 17.3 5 Oeste 13 Oeste 0 -- -- 80
2019-10-02 05:00:00 18.2 8 Noroeste 14 Noroeste 0 -- -- 77
2019-10-02 04:00:00 19.2 5 Oeste 35 Norte 0 -- -- 69
2019-10-02 03:00:00 19.7 18 Noroeste 44 Noroeste 0 -- -- 67
2019-10-02 02:00:00 19.9 15 Norte 44 Norte 0 -- -- 67
2019-10-02 01:00:00 20.5 20 Norte 47 Norte 0 -- -- 66
2019-10-02 00:00:00 20.9 20 Norte 46 Nordeste 0 -- -- 66
2019-10-01 23:00:00 21.4 9 Norte 26 Este 0 -- -- 71
2019-10-01 22:00:00 21.7 9 Nordeste 21 Nordeste 0 -- -- 85
2019-10-01 21:00:00 21.6 0 Calma 5 Oeste 0 -- -- 89
2019-10-01 20:00:00 22.6 3 Este 12 Sudeste 0 -- -- 87
2019-10-01 19:00:00 23.6 9 Sur 23 Sur 0 -- -- 82
2019-10-01 18:00:00 24.4 10 Sur 31 Sur 0 -- -- 78
2019-10-01 17:00:00 24.8 13 Sur 28 Sur 0 -- -- 78
2019-10-01 16:00:00 24.8 17 Sur 31 Sur 0 -- -- 77
2019-10-01 15:00:00 25.6 15 Sur 29 Sur 0 -- -- 74
2019-10-01 14:00:00 25.1 19 Sur 32 Sur 0 -- -- 74
2019-10-01 13:00:00 25.2 12 Sur 24 Sudoeste 0 -- -- 71
2019-10-01 12:00:00 24.4 8 Sur 17 Sur 0 -- -- 72
2019-10-01 11:00:00 22.6 4 Sudoeste 12 Oeste 0 -- -- 80
2019-10-01 10:00:00 18.9 5 Oeste 11 Oeste 0 -- -- 94
2019-10-01 09:00:00 15.9 4 Oeste 10 Oeste 0 -- -- 97
2019-10-01 08:00:00 15.4 5 Oeste 13 Oeste 0 -- -- 97
2019-10-01 07:00:00 15.6 4 Oeste 9 Oeste 0 -- -- 97
2019-10-01 06:00:00 15.7 5 Oeste 12 Oeste 0 -- -- 97
2019-10-01 05:00:00 16 4 Oeste 10 Oeste 0 -- -- 96
2019-10-01 04:00:00 16.5 5 Oeste 13 Oeste 0 -- -- 96
2019-10-01 03:00:00 16.9 4 Oeste 10 Oeste 0 -- -- 95
2019-10-01 02:00:00 17.1 3 Oeste 7 Oeste 0 -- -- 95
2019-10-01 01:00:00 17.3 2 Oeste 6 Sudoeste 0 -- -- 93
2019-10-01 00:00:00 17.8 3 Sudoeste 6 Oeste 0 -- -- 92
2019-09-30 23:00:00 18.7 3 Oeste 8 Sudoeste 0 -- -- 89
2019-09-30 22:00:00 20.3 3 Oeste 7 Sur 0 -- -- 87
2019-09-30 21:00:00 21.1 4 Sudoeste 17 Sudoeste 0 -- -- 86
2019-09-30 20:00:00 21.5 5 Sudoeste 23 Sudoeste 0 -- -- 84
2019-09-30 19:00:00 22.3 9 Sudoeste 24 Sudoeste 0 -- -- 83
2019-09-30 18:00:00 23.2 9 Sudoeste 26 Sudoeste 0 -- -- 78
2019-09-30 17:00:00 24.8 6 Sudeste 22 Sudoeste 0 -- -- 70
2019-09-30 16:00:00 25.9 9 Sur 26 Sudeste 0 -- -- 66
2019-09-30 15:00:00 25.7 13 Sur 27 Sur 0 -- -- 68
2019-09-30 14:00:00 25.5 18 Sur 34 Sur 0 -- -- 69
2019-09-30 13:00:00 25.5 14 Sur 25 Sur 0 -- -- 69
2019-09-30 12:00:00 25.6 9 Sur 20 Sur 0 -- -- 69
2019-09-30 11:00:00 24.1 3 Sudoeste 13 Oeste 0 -- -- 67
2019-09-30 10:00:00 19.7 5 Oeste 13 Oeste 0 -- -- 84
2019-09-30 09:00:00 15.9 6 Sudoeste 13 Sudoeste 0 -- -- 92
2019-09-30 08:00:00 15.5 6 Oeste 14 Sudoeste 0 -- -- 95
2019-09-30 07:00:00 15.3 5 Oeste 13 Sudoeste 0 -- -- 94
2019-09-30 06:00:00 15.9 5 Oeste 10 Oeste 0 -- -- 93
2019-09-30 05:00:00 16.5 5 Oeste 10 Oeste 0 -- -- 93
2019-09-30 04:00:00 17.2 3 Oeste 10 Oeste 0 -- -- 93
2019-09-30 03:00:00 17.9 5 Oeste 11 Sudoeste 0 -- -- 94
2019-09-30 02:00:00 18.3 4 Oeste 10 Oeste 0 -- -- 94
2019-09-30 01:00:00 19 5 Oeste 11 Oeste 0 -- -- 94
2019-09-30 00:00:00 19.8 5 Oeste 10 Oeste 0 -- -- 93
2019-09-29 23:00:00 20.4 4 Oeste 6 Sudoeste 0 -- -- 92
2019-09-29 22:00:00 21.3 2 Oeste 6 Sur 0 -- -- 89
2019-09-29 21:00:00 22.4 0 Calma 5 Sudeste 0 -- -- 88
2019-09-29 20:00:00 23.7 2 Este 16 Sudoeste 0 -- -- 84
2019-09-29 19:00:00 24.7 4 Sur 22 Sur 0 -- -- 80
2019-09-29 18:00:00 25.5 14 Sur 27 Sudoeste 0 -- -- 77
2019-09-29 17:00:00 26.9 11 Sur 26 Sudeste 0 -- -- 72
2019-09-29 16:00:00 26.8 16 Sur 31 Sur 0 -- -- 73
2019-09-29 15:00:00 27.6 17 Sur 31 Sur 0 -- -- 70
2019-09-29 14:00:00 27.2 17 Sur 31 Sur 0 -- -- 68
2019-09-29 13:00:00 26.8 13 Sur 26 Sur 0 -- -- 69
2019-09-29 12:00:00 26.1 9 Sur 18 Sur 0 -- -- 72
2019-09-29 11:00:00 24.1 3 Sudoeste 11 Oeste 0 -- -- 74
2019-09-29 10:00:00 20.2 4 Oeste 13 Sudoeste 0 -- -- 92
2019-09-29 09:00:00 16.7 7 Oeste 12 Oeste 0 -- -- 98
2019-09-29 08:00:00 14.6 6 Oeste 10 Oeste 0 -- -- 96
2019-09-29 07:00:00 14.9 7 Oeste 12 Oeste 0 -- -- 96
2019-09-29 06:00:00 15.2 6 Oeste 13 Oeste 0 -- -- 96
2019-09-29 05:00:00 15.4 5 Oeste 11 Oeste 0 -- -- 96
2019-09-29 04:00:00 15.7 5 Oeste 10 Oeste 0 -- -- 96
2019-09-29 03:00:00 15.8 4 Oeste 11 Oeste 0 -- -- 95
2019-09-29 02:00:00 16.1 5 Oeste 10 Oeste 0 -- -- 93
2019-09-29 01:00:00 16.6 4 Oeste 10 Oeste 0 -- -- 92
2019-09-29 00:00:00 17 5 Oeste 9 Oeste 0 -- -- 93
2019-09-28 23:00:00 17.4 4 Oeste 8 Oeste 0 -- -- 91
2019-09-28 22:00:00 18 3 Oeste 5 Sudoeste 0 -- -- 87
2019-09-28 21:00:00 18.9 2 Sudeste 4 Sur 0 -- -- 85
2019-09-28 20:00:00 20.2 2 Sur 12 Sudeste 0 -- -- 80
2019-09-28 19:00:00 21.2 5 Sudeste 14 Sudeste 0 -- -- 75
2019-09-28 18:00:00 21.9 8 Sudeste 14 Sudeste 0 -- -- 72
2019-09-28 17:00:00 22.6 9 Sudeste 21 Este 0 -- -- 65
2019-09-28 16:00:00 23.4 9 Este 21 Este 0 -- -- 67
2019-09-28 15:00:00 24.1 9 Este 19 Este 0 -- -- 61
2019-09-28 14:00:00 24.5 8 Este 19 Este 0 -- -- 59
2019-09-28 13:00:00 24.5 9 Este 22 Este 0 -- -- 59
2019-09-28 12:00:00 24.9 8 Este 21 Nordeste 0 -- -- 55
2019-09-28 11:00:00 23.5 8 Nordeste 21 Nordeste 0 -- -- 58
2019-09-28 10:00:00 21.1 3 Sur 13 Oeste 0 -- -- 75
2019-09-28 09:00:00 18.5 3 Oeste 10 Sudoeste 0 -- -- 94
2019-09-28 08:00:00 17.9 4 Oeste 10 Oeste 0 -- -- 96
2019-09-28 07:00:00 17.5 4 Oeste 10 Oeste 0 -- -- 96
2019-09-28 06:00:00 18 4 Oeste 9 Oeste 0 -- -- 95
2019-09-28 05:00:00 18.6 6 Oeste 9 Oeste 0 -- -- 96
2019-09-28 04:00:00 19.5 4 Oeste 9 Oeste 0 -- -- 96
2019-09-28 03:00:00 20.5 3 Sudoeste 8 Oeste 0 -- -- 96
2019-09-28 02:00:00 21.1 3 Oeste 6 Oeste 0 -- -- 95
2019-09-28 01:00:00 21.7 2 Norte 6 Sudeste 0 -- -- 95
2019-09-28 00:00:00 22.2 3 Este 9 Este 0 -- -- 93
2019-09-27 23:00:00 22.6 3 Este 6 Este 0 -- -- 92
2019-09-27 22:00:00 22.5 2 Sudeste 6 Nordeste 0 -- -- 90
2019-09-27 21:00:00 22.9 0 Calma 13 Sur 0 -- -- 89
2019-09-27 20:00:00 23.2 3 Noroeste 10 Sur 0 -- -- 89
2019-09-27 19:00:00 23.7 3 Oeste 10 Sudeste 0 -- -- 88
2019-09-27 18:00:00 23.7 8 Este 18 Este 0 -- -- 88
2019-09-27 17:00:00 24.5 8 Sudeste 17 Este 0 -- -- 84
2019-09-27 16:00:00 23.8 6 Este 14 Este 0 -- -- 87
2019-09-27 15:00:00 25.2 6 Sudeste 19 Sudeste 0 -- -- 77
2019-09-27 14:00:00 25.4 11 Sur 26 Sur 0 -- -- 73
2019-09-27 13:00:00 25.1 8 Sudeste 23 Este 0 -- -- 74
2019-09-27 12:00:00 24.2 10 Sudeste 18 Sudeste 0 -- -- 75
2019-09-27 11:00:00 23.8 5 Sudeste 12 Sur 0 -- -- 75
2019-09-27 10:00:00 20.5 5 Oeste 12 Oeste 0 -- -- 86
2019-09-27 09:00:00 16.9 5 Sudoeste 12 Oeste 0 -- -- 96
2019-09-27 08:00:00 16.1 5 Oeste 12 Oeste 0 -- -- 96
2019-09-27 07:00:00 16.1 4 Oeste 12 Oeste 0 -- -- 96
2019-09-27 06:00:00 16.3 4 Sudoeste 9 Sudoeste 0 -- -- 95
2019-09-27 05:00:00 16.6 3 Oeste 11 Oeste 0 -- -- 95
2019-09-27 04:00:00 17 5 Oeste 13 Sudoeste 0 -- -- 94
2019-09-27 03:00:00 17.2 4 Oeste 11 Oeste 0 -- -- 94
2019-09-27 02:00:00 17.6 5 Oeste 9 Oeste 0 -- -- 93
2019-09-27 01:00:00 17.8 3 Oeste 9 Oeste 0 -- -- 92
2019-09-27 00:00:00 18.2 6 Oeste 8 Oeste 0 -- -- 92
2019-09-26 23:00:00 18.8 4 Oeste 6 Noroeste 0 -- -- 88
2019-09-26 22:00:00 19.8 3 Oeste 5 Oeste 0 -- -- 85
2019-09-26 21:00:00 21.5 0 Calma 15 Sudoeste 0 -- -- 80
2019-09-26 20:00:00 22.2 5 Sur 14 Sudeste 0 -- -- 78
2019-09-26 19:00:00 23 6 Sudoeste 15 Sur 0 -- -- 74
2019-09-26 18:00:00 23.4 8 Sur 21 Sur 0 -- -- 73
2019-09-26 17:00:00 23.5 5 Sudeste 17 Este 0 -- -- 78
2019-09-26 16:00:00 23.8 9 Sudeste 19 Este 0 -- -- 75
2019-09-26 15:00:00 23.8 9 Sudeste 19 Sudeste 0 -- -- 73
2019-09-26 14:00:00 23.1 10 Este 18 Este 0 -- -- 74
2019-09-26 13:00:00 23.1 8 Este 17 Sudeste 0 -- -- 72
2019-09-26 12:00:00 23 8 Este 20 Este 0 -- -- 72
2019-09-26 11:00:00 23 5 Sudeste 12 Este 0 -- -- 72
2019-09-26 10:00:00 19.4 4 Oeste 12 Oeste 0 -- -- 85
2019-09-26 09:00:00 16.1 4 Oeste 10 Oeste 0 -- -- 93
2019-09-26 08:00:00 15.4 5 Oeste 9 Oeste 0 -- -- 95
2019-09-26 07:00:00 15.6 4 Oeste 10 Sudoeste 0 -- -- 94
2019-09-26 06:00:00 15.9 4 Sudoeste 9 Oeste 0 -- -- 93
2019-09-26 05:00:00 16.2 3 Oeste 6 Oeste 0 -- -- 93
2019-09-26 04:00:00 16.4 3 Oeste 7 Oeste 0 -- -- 92
2019-09-26 03:00:00 16.6 4 Oeste 8 Oeste 0 -- -- 91
2019-09-26 02:00:00 16.7 3 Sudoeste 8 Oeste 0 -- -- 89
2019-09-26 01:00:00 17.3 3 Oeste 8 Oeste 0 -- -- 87
2019-09-26 00:00:00 17.6 3 Sudoeste 6 Oeste 0 -- -- 84
2019-09-25 23:00:00 18.7 2 Sudoeste 7 Sudoeste 0 -- -- 79
2019-09-25 22:00:00 19.2 3 Sudoeste 8 Sudoeste 0 -- -- 78
2019-09-25 21:00:00 20.1 2 Oeste 5 Oeste 0 -- -- 77
2019-09-25 20:00:00 21 3 Oeste 5 Oeste 0 -- -- 75
2019-09-25 19:00:00 21.2 0 Calma 10 Sudeste 0 -- -- 73
2019-09-25 18:00:00 21.6 6 Este 14 Este 0 -- -- 71
2019-09-25 17:00:00 22.2 5 Este 19 Este 0 -- -- 66
2019-09-25 16:00:00 23.3 8 Este 18 Este 0 -- -- 58
2019-09-25 15:00:00 22.4 9 Este 21 Este 0 -- -- 62
2019-09-25 14:00:00 25.1 7 Nordeste 21 Nordeste 0 -- -- 51
2019-09-25 13:00:00 24.3 10 Norte 23 Nordeste 0 -- -- 50
2019-09-25 12:00:00 23.8 9 Nordeste 18 Nordeste 0 -- -- 52
2019-09-25 11:00:00 22.5 6 Nordeste 21 Nordeste 0 -- -- 57
2019-09-25 10:00:00 21 8 Nordeste 23 Norte 0 -- -- 59
2019-09-25 09:00:00 17 3 Sudoeste 9 Noroeste 0 -- -- 87
2019-09-25 08:00:00 16.5 5 Oeste 8 Oeste 0 -- -- 88
2019-09-25 07:00:00 16.4 3 Oeste 6 Oeste 0 -- -- 90
2019-09-25 06:00:00 17.3 3 Sudeste 10 Sudeste 0 -- -- 83
2019-09-25 05:00:00 16.6 3 Sur 10 Oeste 0 -- -- 89
2019-09-25 04:00:00 17.1 5 Oeste 13 Sudoeste 0 -- -- 89
2019-09-25 03:00:00 17.1 4 Oeste 10 Oeste 0 -- -- 91
2019-09-25 02:00:00 17.1 5 Oeste 14 Oeste 0 -- -- 93
2019-09-25 01:00:00 17.4 5 Oeste 12 Oeste 0 -- -- 94
2019-09-25 00:00:00 17.9 3 Oeste 10 Oeste 0 -- -- 92
2019-09-24 23:00:00 18.4 4 Oeste 9 Oeste 0 -- -- 92
2019-09-24 22:00:00 19.2 4 Oeste 6 Oeste 0 -- -- 88
2019-09-24 21:00:00 20.1 0 Calma 8 Este 0 -- -- 88
2019-09-24 20:00:00 20.9 4 Sudeste 8 Este 0 -- -- 83
2019-09-24 19:00:00 21.9 5 Este 16 Este 0 -- -- 79
2019-09-24 18:00:00 22.7 7 Este 15 Este 0 -- -- 78
2019-09-24 17:00:00 23.3 8 Este 19 Este 0 -- -- 74
2019-09-24 16:00:00 23.6 10 Este 22 Este 0 -- -- 72
2019-09-24 15:00:00 23.9 12 Este 24 Este 0 -- -- 72
2019-09-24 14:00:00 24.9 14 Este 21 Nordeste 0 -- -- 63
2019-09-24 13:00:00 26.3 8 Este 15 Este 0 -- -- 53
2019-09-24 12:00:00 25.5 8 Este 18 Nordeste 0 -- -- 53
2019-09-24 11:00:00 23.9 2 Norte 9 Este 0 -- -- 56
2019-09-24 10:00:00 19.9 4 Norte 7 Norte 0 -- -- 80
2019-09-24 09:00:00 15.6 3 Oeste 11 Oeste 0 -- -- 95
2019-09-24 08:00:00 14.8 7 Oeste 12 Oeste 0 -- -- 95
2019-09-24 07:00:00 14.8 4 Oeste 9 Oeste 0 -- -- 95
2019-09-24 06:00:00 15.2 4 Sudoeste 12 Sudoeste 0 -- -- 95
2019-09-24 05:00:00 15.6 4 Sudoeste 10 Oeste 0 -- -- 93
2019-09-24 04:00:00 16.4 7 Oeste 10 Oeste 0 -- -- 92
2019-09-24 03:00:00 16.8 4 Oeste 13 Sudoeste 0 -- -- 92
2019-09-24 02:00:00 16.9 5 Oeste 12 Oeste 0 -- -- 91
2019-09-24 01:00:00 17.4 6 Sudoeste 12 Sudoeste 0 -- -- 89
2019-09-24 00:00:00 17.9 4 Oeste 16 Oeste 0 -- -- 87
2019-09-23 23:00:00 18.3 5 Oeste 9 Oeste 0 -- -- 87
2019-09-23 22:00:00 18.7 3 Sudoeste 6 Sudoeste 0 -- -- 85
2019-09-23 21:00:00 19.4 3 Sur 6 Oeste 0 -- -- 82
2019-09-23 20:00:00 21.1 2 Este 14 Sur 0 -- -- 77
2019-09-23 19:00:00 21.8 4 Sudoeste 24 Oeste 0 -- -- 71
2019-09-23 18:00:00 21.9 8 Oeste 26 Sur 0 -- -- 72
2019-09-23 17:00:00 22.6 12 Sur 23 Sudeste 0 -- -- 68
2019-09-23 16:00:00 22.7 10 Sur 24 Sur 0 -- -- 65
2019-09-23 15:00:00 23.1 13 Sur 23 Sudeste 0 -- -- 66
2019-09-23 14:00:00 22.3 9 Sur 20 Sudeste 0 -- -- 66
2019-09-23 13:00:00 22.6 10 Sudeste 22 Sudeste 0 -- -- 64
2019-09-23 12:00:00 23 13 Sudeste 19 Sudeste 0 -- -- 59
2019-09-23 11:00:00 21.5 5 Oeste 16 Oeste 0 -- -- 65
2019-09-23 10:00:00 19.7 8 Oeste 17 Oeste 0 -- -- 73
2019-09-23 09:00:00 17.6 4 Oeste 8 Oeste 0 -- -- 79
2019-09-23 08:00:00 16.7 0 Calma 8 Nordeste 0 -- -- 79
2019-09-23 07:00:00 18.9 3 Noroeste 19 Norte 0 -- -- 66
2019-09-23 06:00:00 19.5 6 Norte 22 Norte 0 -- -- 63
2019-09-23 05:00:00 19.9 9 Norte 28 Norte 0 -- -- 61
2019-09-23 04:00:00 20.3 10 Norte 24 Nordeste 0 -- -- 59
2019-09-23 03:00:00 20.3 13 Nordeste 28 Norte 0 -- -- 60
2019-09-23 02:00:00 18.7 4 Sur 17 Noroeste 0 -- -- 78
2019-09-23 01:00:00 18.2 3 Sudoeste 16 Noroeste 0 -- -- 86
2019-09-23 00:00:00 19.1 7 Nordeste 23 Norte 1.4 -- -- 73
2019-09-22 23:00:00 20.5 4 Este 16 Nordeste 0 -- -- 67
2019-09-22 22:00:00 21.3 4 Noroeste 10 Noroeste 0 -- -- 71
2019-09-22 21:00:00 21.5 7 Este 24 Este 0 -- -- 75
2019-09-22 20:00:00 22 11 Nordeste 28 Nordeste 0 -- -- 78
2019-09-22 19:00:00 24.7 4 Nordeste 17 Sudeste 0 -- -- 80
2019-09-22 18:00:00 25.3 14 Sur 24 Sur 0 -- -- 78
2019-09-22 17:00:00 27.3 6 Sur 23 Sur 0 -- -- 71
2019-09-22 16:00:00 27.5 10 Sur 23 Sudoeste 0 -- -- 69
2019-09-22 15:00:00 28.1 8 Sur 25 Sur 0 -- -- 67
2019-09-22 14:00:00 26.5 15 Sur 31 Sur 0 -- -- 72
2019-09-22 13:00:00 26 11 Sur 25 Sudoeste 0 -- -- 73
2019-09-22 12:00:00 25.1 9 Sur 20 Sur 0 -- -- 75
2019-09-22 11:00:00 23.2 8 Sudeste 15 Sur 0 -- -- 82
2019-09-22 10:00:00 20.3 3 Norte 8 Oeste 0 -- -- 94
2019-09-22 09:00:00 17.1 5 Oeste 9 Oeste 0 -- -- 100
2019-09-22 08:00:00 16.1 4 Oeste 8 Oeste 0 -- -- 99
2019-09-22 07:00:00 16.2 3 Oeste 11 Oeste 0 -- -- 99
2019-09-22 06:00:00 16.5 5 Oeste 13 Oeste 0 -- -- 99
2019-09-22 05:00:00 16.7 5 Sudoeste 12 Oeste 0 -- -- 99
2019-09-22 04:00:00 16.8 3 Oeste 10 Oeste 0 -- -- 99
2019-09-22 03:00:00 17.2 4 Oeste 11 Sudoeste 0 -- -- 98
2019-09-22 02:00:00 17.7 3 Oeste 10 Sudoeste 0 -- -- 98
2019-09-22 01:00:00 17.9 3 Oeste 10 Sudoeste 0 -- -- 98
2019-09-22 00:00:00 17.9 3 Oeste 10 Oeste 0 -- -- 98
2019-09-21 23:00:00 18.5 3 Oeste 12 Oeste 0 -- -- 97
2019-09-21 22:00:00 18.9 7 Oeste 15 Oeste 0 -- -- 97
2019-09-21 21:00:00 19.3 2 Oeste 8 Sudoeste 0 -- -- 96
2019-09-21 20:00:00 19.9 2 Nordeste 10 Oeste 0 -- -- 94
2019-09-21 19:00:00 19.9 3 Nordeste 8 Norte 0 -- -- 94
2019-09-21 18:00:00 19 3 Nordeste 10 Noroeste 0.2 -- -- 96
2019-09-21 17:00:00 18.4 4 Nordeste 21 Este 0.2 -- -- 98
2019-09-21 16:00:00 18.5 3 Sudeste 11 Norte 1.4 -- -- 98
2019-09-21 15:00:00 18.8 5 Sudeste 13 Sudeste 0 -- -- 97
2019-09-21 14:00:00 19.1 5 Este 22 Oeste 0.8 -- -- 98
2019-09-21 13:00:00 19.1 5 Noroeste 24 Nordeste 1.6 -- -- 97
2019-09-21 12:00:00 19.4 15 Nordeste 30 Nordeste 14.2 -- -- 95
2019-09-21 11:00:00 19.1 9 Norte 23 Nordeste 12 -- -- 95
2019-09-21 10:00:00 19.3 11 Este 23 Este 7.2 -- -- 97
2019-09-21 09:00:00 18.9 9 Este 21 Este 51 -- -- 97
2019-09-21 08:00:00 19.6 7 Sudeste 16 Nordeste 3.6 -- -- 94
2019-09-21 07:00:00 19.9 2 Sudoeste 14 Oeste 0 -- -- 93
2019-09-21 06:00:00 19.6 9 Oeste 16 Oeste 0 -- -- 93
2019-09-21 05:00:00 19.4 5 Oeste 13 Oeste 0.2 -- -- 95
2019-09-21 04:00:00 19.3 4 Oeste 10 Oeste 0 -- -- 92
2019-09-21 03:00:00 18.8 3 Oeste 9 Oeste 0 -- -- 92
2019-09-21 02:00:00 19 4 Oeste 8 Noroeste 0 -- -- 91
2019-09-21 01:00:00 19.3 3 Oeste 9 Oeste 0 -- -- 90
2019-09-21 00:00:00 19.5 3 Oeste 7 Oeste 0 -- -- 90
2019-09-20 23:00:00 19.6 3 Oeste 6 Oeste 0 -- -- 89
2019-09-20 22:00:00 20.2 2 Oeste 5 Sudoeste 0 -- -- 87
2019-09-20 21:00:00 21.3 0 Calma 9 Este 0 -- -- 84
2019-09-20 20:00:00 22.2 5 Nordeste 17 Este 0 -- -- 81
2019-09-20 19:00:00 22.7 11 Este 24 Nordeste 0 -- -- 78
2019-09-20 18:00:00 23.5 11 Este 29 Este 0 -- -- 78
2019-09-20 17:00:00 24.3 11 Este 26 Este 0 -- -- 78
2019-09-20 16:00:00 24.3 16 Este 26 Nordeste 0 -- -- 76
2019-09-20 15:00:00 25.2 10 Este 20 Este 0 -- -- 71
2019-09-20 14:00:00 25.2 9 Este 18 Este 0 -- -- 70
2019-09-20 13:00:00 24.9 9 Este 19 Sudeste 0 -- -- 71
2019-09-20 12:00:00 24.4 9 Este 21 Sudeste 0 -- -- 70
2019-09-20 11:00:00 24 9 Este 18 Este 0 -- -- 67
2019-09-20 10:00:00 21.1 3 Sudoeste 11 Oeste 0 -- -- 76
2019-09-20 09:00:00 17.6 5 Oeste 13 Oeste 0 -- -- 90
2019-09-20 08:00:00 16.1 5 Oeste 11 Oeste 0 -- -- 94
2019-09-20 07:00:00 16.3 5 Oeste 12 Oeste 0 -- -- 94
2019-09-20 06:00:00 16.4 5 Oeste 13 Oeste 0 -- -- 93
2019-09-20 05:00:00 16.4 5 Oeste 12 Oeste 0 -- -- 92
2019-09-20 04:00:00 16.5 5 Oeste 15 Oeste 0 -- -- 91
2019-09-20 03:00:00 16.9 5 Oeste 11 Oeste 0 -- -- 90
2019-09-20 02:00:00 17.6 3 Oeste 9 Sudoeste 0 -- -- 89
2019-09-20 01:00:00 18.2 4 Oeste 9 Oeste 0 -- -- 86
2019-09-20 00:00:00 18.6 3 Oeste 6 Oeste 0 -- -- 85
2019-09-19 23:00:00 19.6 3 Sudoeste 8 Oeste 0 -- -- 83
2019-09-19 22:00:00 20.3 2 Oeste 4 Oeste 0 -- -- 83
2019-09-19 21:00:00 21.1 0 Calma 5 Nordeste 0 -- -- 81
2019-09-19 20:00:00 21.8 2 Nordeste 6 Este 0 -- -- 79
2019-09-19 19:00:00 22.3 3 Sudeste 13 Sudeste 0 -- -- 74
2019-09-19 18:00:00 23 7 Este 17 Sudeste 0 -- -- 69
2019-09-19 17:00:00 23.5 9 Este 24 Este 0 -- -- 70
2019-09-19 16:00:00 24.1 10 Este 24 Este 0 -- -- 65
2019-09-19 15:00:00 24.5 11 Este 24 Nordeste 0 -- -- 66
2019-09-19 14:00:00 24.6 13 Este 24 Este 0 -- -- 63
2019-09-19 13:00:00 25.6 11 Este 22 Este 0 -- -- 59
2019-09-19 12:00:00 26.4 9 Este 18 Sudeste 0 -- -- 52
2019-09-19 11:00:00 25.2 8 Este 18 Este 0 -- -- 54
2019-09-19 10:00:00 21.9 4 Oeste 13 Oeste 0 -- -- 70
2019-09-19 09:00:00 18.9 6 Oeste 14 Oeste 0 -- -- 81
2019-09-19 08:00:00 17.7 3 Oeste 11 Sudoeste 0 -- -- 84
2019-09-19 07:00:00 17.7 3 Oeste 9 Oeste 0 -- -- 83
2019-09-19 06:00:00 17.7 4 Oeste 10 Oeste 0 -- -- 83
2019-09-19 05:00:00 18.4 4 Oeste 11 Oeste 0 -- -- 81
2019-09-19 04:00:00 19.5 5 Sudoeste 12 Oeste 0 -- -- 75
2019-09-19 03:00:00 20.9 5 Oeste 19 Noroeste 0 -- -- 71
2019-09-19 02:00:00 19.9 4 Sudoeste 17 Oeste 0 -- -- 79
2019-09-19 01:00:00 19.2 4 Oeste 10 Oeste 0 -- -- 82
2019-09-19 00:00:00 19.9 4 Oeste 12 Sudoeste 0 -- -- 80
2019-09-18 23:00:00 20.2 6 Oeste 11 Oeste 0 -- -- 80
2019-09-18 22:00:00 20.8 4 Sudoeste 10 Oeste 0 -- -- 77
2019-09-18 21:00:00 22.4 7 Oeste 16 Oeste 0 -- -- 70
2019-09-18 20:00:00 22.7 5 Sudoeste 12 Noroeste 0 -- -- 69
2019-09-18 19:00:00 23.6 3 Oeste 6 Este 0 -- -- 64
2019-09-18 18:00:00 23.7 0 Calma 13 Este 0 -- -- 64
2019-09-18 17:00:00 24.4 6 Sudeste 24 Este 0 -- -- 60
2019-09-18 16:00:00 24.6 12 Este 24 Este 0 -- -- 60
2019-09-18 15:00:00 25.8 14 Este 27 Este 0 -- -- 55
2019-09-18 14:00:00 27 11 Sudeste 22 Sudeste 0 -- -- 52
2019-09-18 13:00:00 26.3 9 Este 23 Este 0 -- -- 58
2019-09-18 12:00:00 26.7 7 Sur 18 Sudeste 0 -- -- 55
2019-09-18 11:00:00 25.3 10 Sudeste 19 Sudeste 0 -- -- 64
2019-09-18 10:00:00 22.8 4 Nordeste 8 Este 0 -- -- 76
2019-09-18 09:00:00 18.9 4 Oeste 13 Sudoeste 0 -- -- 92
2019-09-18 08:00:00 17.5 6 Oeste 13 Oeste 0 -- -- 94
2019-09-18 07:00:00 18.1 4 Oeste 10 Sudoeste 0 -- -- 93
2019-09-18 06:00:00 18 3 Oeste 15 Oeste 0 -- -- 93
2019-09-18 05:00:00 17.8 5 Oeste 12 Oeste 0 -- -- 92
2019-09-18 04:00:00 17.6 3 Oeste 11 Oeste 0 -- -- 90
2019-09-18 03:00:00 17.1 5 Oeste 10 Oeste 0 -- -- 91
2019-09-18 02:00:00 17.4 3 Oeste 8 Oeste 0 -- -- 88
2019-09-18 01:00:00 18.2 3 Oeste 9 Oeste 0 -- -- 87
2019-09-18 00:00:00 18.4 5 Oeste 12 Oeste 0 -- -- 85
2019-09-17 23:00:00 19.4 5 Oeste 13 Oeste 0 -- -- 83
2019-09-17 22:00:00 20.6 3 Sudoeste 7 Oeste 0 -- -- 81
2019-09-17 21:00:00 22 2 Sudoeste 6 Oeste 0 -- -- 79
2019-09-15 18:00:00 -- -- -- -- -- -- -- -- --
2019-09-15 17:00:00 26.1 10 Este 16 Sudeste 0 -- -- 60
2019-09-15 16:00:00 26.8 9 Este 23 Este 0 -- -- 60
2019-09-15 15:00:00 25.8 10 Este 23 Este 0 -- -- 64
2019-09-15 14:00:00 26.4 12 Este 22 Este 0 -- -- 62
2019-09-15 13:00:00 26.8 10 Este 23 Nordeste 0 -- -- 62
2019-09-15 12:00:00 26.7 8 Este 17 Nordeste 0 -- -- 60
2019-09-15 11:00:00 25.4 6 Nordeste 18 Este 0 -- -- 62
2019-09-15 10:00:00 23.4 5 Sudeste 10 Este 0 -- -- 67
2019-09-15 09:00:00 19.2 4 Oeste 9 Oeste 0 -- -- 83
2019-09-15 08:00:00 16.8 4 Oeste 10 Oeste 0 -- -- 83
2019-09-15 07:00:00 17.3 3 Oeste 8 Oeste 0 -- -- 82
2019-09-15 06:00:00 18.4 4 Sudoeste 15 Sudoeste 0 -- -- 77
2019-09-15 05:00:00 17.6 3 Sudoeste 11 Sudeste 0 -- -- 86
2019-09-15 04:00:00 17.8 4 Oeste 10 Oeste 0 -- -- 88
2019-09-15 03:00:00 18.5 5 Oeste 10 Sudoeste 0 -- -- 86
2019-09-15 02:00:00 18.6 4 Oeste 14 Oeste 0 -- -- 83
2019-09-15 01:00:00 18.5 6 Oeste 12 Sudoeste 0 -- -- 83
2019-09-15 00:00:00 19.2 4 Oeste 11 Sudoeste 0 -- -- 80